METAR

TAF

 




Curitiba / Bacacheri, PR - SBBI


22 de Julho de 2014 às 15:00 (UTC)


Tempo:

Céu sem restrições operacionais para aviação

Temperatura:

19ºC

Umidade Relativa:

56%

Localização:
Ajuste do Altímetro:

1024 hPa

Visibilidade Horizontal Predominante:

Igual ou acima de 10 Km

Direção e Velocidade do Vento:

030° 3,70 Km/h


Observação Meteorológica:

METAR SBBI 221500Z 03002KT CAVOK 19/10 Q1024=